Finkenwerder, Germany

5:06 PM CEST on October 22, 2014 (GMT +0200)
Finkenwerder | Change Station
CLOSE
Current Station
Airport
Location: Hamburg Finkenwerder,
Elevation: 5 m
Nearby Weather Stations

Elev 5 m 53.54 °N, 9.84 °E | Updated 16 minutes ago

Mostly Cloudy
Mostly Cloudy
13 °C
Feels Like 13 °C
N
20
Wind Variable Wind from NW

Today
High -- | Low -- °C
--% Chance of Precip.
Yesterday
High -- | Low -- °C
Precip. -- mm
8:00 AM 6:08 PM
Waning Crescent, 2% visible
Pressure 1010 hPa
Visibility 10.0 kilometers
Clouds Few 304 m
Mostly Cloudy 457 m
Dew Point 11 °C
Humidity 88%
Rainfall 0.0 mm
Snow Depth Not available.
UV 0 out of 12
Pollen Not available.
Air Quality Not available.
Flu Activity Not available.
METAR EDHI 221450Z 31011KT 280V340 9999 FEW010 BKN015 13/11 Q1010

More Conditions Fewer Conditions

Pressure 1010 hPa
Visibility 10.0 kilometers
Clouds Few 304 m
Mostly Cloudy 457 m
Dew Point 11 °C
Humidity 88%
Rainfall 0.0 mm
Snow Depth Not available.
UV 0 out of 12
Pollen Not available.
Air Quality Not available.
Flu Activity Not available.
METAR EDHI 221450Z 31011KT 280V340 9999 FEW010 BKN015 13/11 Q1010

More Conditions Fewer Conditions

10-Day Weather Forecast

Almanac

Astronomy

Oct. 22, 2014 Rise Set
Actual Time 8:00 AM CEST 6:08 PM CEST
Civil Twilight 7:24 AM CEST 6:44 PM CEST
Nautical Twilight 6:43 AM CEST 7:25 PM CEST
Astronomical Twilight 6:03 AM CEST 8:05 PM CEST
Moon 6:13 AM CEST 5:35 PM CEST
Length of Visible Light 11h 20m
Length of Day
10h 08m
Tomorrow will be 4m 4s shorter.
Waning Crescent, 2% of the Moon is Illuminated
Today
Waning Crescent
Oct 23
New
Oct 30
First Quarter
Nov 6
Full
Nov 14
Last Quarter

Today's Extremes

Country Highs Country Lows

Community

WunderPhotos

Upload Photos

1,763,940 photos uploaded!

WunderBlogs® & News

Nearby

Snow Depth

Not available.

Earthquake Activity

City Distance Mag. Time & Date
No recent earthquake activity has been reported nearby.
Minimum magnitude displayed is 2.5.

Coastal Water Temperatures

Place Temperature
No Stations Reporting

Nearby Weather Stations